createdAt,value
2023-03-26T00:04:06.977Z,12.72
2023-03-26T00:09:13.693Z,12.40
2023-03-26T00:14:17.952Z,10.91
2023-03-26T00:19:21.625Z,11.37
2023-03-26T00:24:29.669Z,11.90
2023-03-26T00:29:33.484Z,12.43
2023-03-26T00:34:36.490Z,12.72
2023-03-26T00:39:39.610Z,12.95
2023-03-26T00:44:42.707Z,12.67
2023-03-26T00:49:46.972Z,10.99
2023-03-26T00:54:52.831Z,11.30
2023-03-26T00:59:56.861Z,12.19
2023-03-26T01:05:04.377Z,12.70
2023-03-26T01:10:07.775Z,12.88
2023-03-26T01:15:11.283Z,11.77
2023-03-26T01:20:26.903Z,10.83
2023-03-26T01:25:38.383Z,11.76
2023-03-26T01:31:01.518Z,12.38
2023-03-26T01:36:19.638Z,12.55
2023-03-26T01:42:00.327Z,12.46
2023-03-26T01:47:04.209Z,12.69
2023-03-26T01:52:15.044Z,12.81
2023-03-26T01:57:34.332Z,11.76
2023-03-26T02:02:44.591Z,10.76
2023-03-26T02:07:58.649Z,11.59
2023-03-26T02:13:02.064Z,12.11
2023-03-26T02:18:05.137Z,12.27
2023-03-26T02:23:09.020Z,12.48
2023-03-26T02:28:12.136Z,12.62
2023-03-26T02:33:15.543Z,12.60
2023-03-26T02:38:19.790Z,12.61
2023-03-26T02:43:22.794Z,12.38
2023-03-26T02:48:26.426Z,11.40
2023-03-26T02:53:32.598Z,11.85
2023-03-26T02:58:35.599Z,12.30
2023-03-26T03:03:38.977Z,12.57
2023-03-26T03:08:41.935Z,12.72
2023-03-26T03:13:46.386Z,12.82
2023-03-26T03:18:54.814Z,12.83
2023-03-26T03:24:00.295Z,12.87
2023-03-26T03:29:04.030Z,12.86
2023-03-26T03:34:07.092Z,12.70
2023-03-26T03:39:10.201Z,12.49
2023-03-26T03:44:13.209Z,12.60
2023-03-26T03:49:16.533Z,12.69
2023-03-26T03:54:19.440Z,12.73
2023-03-26T03:59:22.442Z,12.45
2023-03-26T04:04:25.670Z,12.24
2023-03-26T04:09:28.651Z,12.14
2023-03-26T04:14:31.658Z,12.17
2023-03-26T04:19:34.678Z,12.40
2023-03-26T04:24:42.453Z,12.59
2023-03-26T04:29:49.819Z,12.91
2023-03-26T04:34:53.887Z,12.99
2023-03-26T04:39:56.774Z,13.05
2023-03-26T04:45:00.143Z,13.12
2023-03-26T04:50:08.238Z,13.23
2023-03-26T04:55:24.538Z,12.17
2023-03-26T05:00:27.902Z,10.81
2023-03-26T05:05:31.011Z,11.54
2023-03-26T05:10:34.333Z,12.12
2023-03-26T05:15:37.430Z,12.50
2023-03-26T05:20:41.633Z,12.67
2023-03-26T05:25:44.675Z,12.64
2023-03-26T05:30:47.792Z,12.81
2023-03-26T05:36:09.522Z,12.92
2023-03-26T05:41:12.430Z,13.06
2023-03-26T05:46:16.944Z,13.26
2023-03-26T05:51:20.824Z,13.43
2023-03-26T05:56:23.808Z,13.27
2023-03-26T06:01:26.909Z,13.52
2023-03-26T06:06:32.247Z,13.46
2023-03-26T06:11:36.502Z,12.27
2023-03-26T06:16:39.716Z,12.98
2023-03-26T06:21:42.824Z,13.67
2023-03-26T06:26:47.217Z,13.97
2023-03-26T06:31:50.175Z,14.31
2023-03-26T06:36:53.300Z,13.33
2023-03-26T06:41:56.699Z,14.09
2023-03-26T06:47:00.198Z,15.30
2023-03-26T06:52:03.856Z,14.69
2023-03-26T06:57:06.879Z,13.73
2023-03-26T07:02:11.579Z,14.23
2023-03-26T07:07:14.709Z,14.49
2023-03-26T07:12:18.121Z,13.43
2023-03-26T07:17:21.233Z,13.98
2023-03-26T07:22:25.000Z,13.75
2023-03-26T07:27:46.905Z,12.73
2023-03-26T07:32:59.464Z,13.54
2023-03-26T07:38:33.280Z,13.62
2023-03-26T07:44:04.531Z,12.78
2023-03-26T07:49:12.966Z,14.03
2023-03-26T07:54:16.434Z,13.45
2023-03-26T07:59:28.296Z,13.27
2023-03-26T08:05:10.627Z,14.34
2023-03-26T08:10:22.176Z,13.15
2023-03-26T08:15:25.945Z,13.56
2023-03-26T08:21:06.541Z,14.58
2023-03-26T08:26:15.028Z,13.93
2023-03-26T08:31:21.673Z,14.46
2023-03-26T08:36:24.671Z,17.43
2023-03-26T08:41:46.525Z,16.35
2023-03-26T08:47:27.564Z,14.54
2023-03-26T08:53:08.025Z,13.17
2023-03-26T08:58:23.303Z,13.11
2023-03-26T09:03:58.906Z,13.80
2023-03-26T09:09:33.315Z,12.82
2023-03-26T09:14:51.687Z,14.50
2023-03-26T09:20:33.091Z,14.58
2023-03-26T09:26:01.695Z,13.62
2023-03-26T09:31:29.096Z,12.93
2023-03-26T09:36:50.720Z,13.89
2023-03-26T09:42:28.853Z,13.08
2023-03-26T09:47:47.751Z,12.00
2023-03-26T09:53:24.835Z,13.35
2023-03-26T09:58:37.285Z,13.76
2023-03-26T10:04:12.117Z,13.99
2023-03-26T10:09:46.661Z,15.60
2023-03-26T10:15:18.037Z,14.73
2023-03-26T10:20:54.781Z,13.86
2023-03-26T10:26:24.767Z,14.20
2023-03-26T10:31:42.899Z,15.39
2023-03-26T10:37:09.187Z,14.58
2023-03-26T10:43:07.388Z,14.79
2023-03-26T10:49:01.168Z,15.50
2023-03-26T10:54:11.371Z,14.43
2023-03-26T10:59:16.306Z,13.86
2023-03-26T11:04:32.891Z,15.22
2023-03-26T11:09:48.270Z,15.16
2023-03-26T11:15:13.045Z,13.88
2023-03-26T11:20:27.622Z,13.36
2023-03-26T11:25:59.822Z,14.86
2023-03-26T11:31:12.070Z,14.23
2023-03-26T11:36:24.692Z,13.18
2023-03-26T11:41:32.682Z,12.52
2023-03-26T11:46:42.724Z,12.17
2023-03-26T11:51:48.952Z,12.33
2023-03-26T11:57:07.266Z,13.88
2023-03-26T12:02:13.423Z,13.66
2023-03-26T12:07:23.464Z,13.52
2023-03-26T12:12:31.473Z,13.44
2023-03-26T12:17:39.802Z,12.88
2023-03-26T12:22:44.965Z,11.69
2023-03-26T12:27:52.985Z,11.55
2023-03-26T12:33:03.809Z,12.59
2023-03-26T12:38:22.461Z,11.30
2023-03-26T12:44:53.414Z,11.31
2023-03-26T12:49:12.091Z,13.00
2023-03-26T12:54:28.927Z,13.84
2023-03-26T13:00:11.152Z,12.86
2023-03-26T13:05:36.893Z,13.50
2023-03-26T13:11:01.582Z,14.64
2023-03-26T13:16:15.068Z,13.84
2023-03-26T13:21:24.008Z,13.45
2023-03-26T13:26:50.675Z,14.69
2023-03-26T13:32:18.977Z,13.79
2023-03-26T13:37:40.520Z,12.56
2023-03-26T13:43:05.030Z,13.12
2023-03-26T13:48:16.678Z,13.73
2023-03-26T13:53:25.970Z,12.92
2023-03-26T13:58:44.461Z,13.90
2023-03-26T14:03:56.446Z,14.44
2023-03-26T14:09:07.573Z,13.03
2023-03-26T14:14:17.953Z,12.83
2023-03-26T14:19:26.806Z,14.19
2023-03-26T14:25:01.949Z,13.84
2023-03-26T14:30:56.655Z,12.75
2023-03-26T14:36:15.344Z,13.85
2023-03-26T14:41:59.316Z,13.24
2023-03-26T14:47:17.866Z,12.48
2023-03-26T14:52:30.104Z,13.53
2023-03-26T14:57:52.574Z,12.59
2023-03-26T15:03:11.179Z,11.83
2023-03-26T15:08:34.174Z,13.24
2023-03-26T15:14:18.401Z,12.72
2023-03-26T15:19:33.690Z,11.78
2023-03-26T15:25:17.145Z,12.92
2023-03-26T15:30:39.619Z,12.65
2023-03-26T15:36:26.566Z,11.56
2023-03-26T15:41:58.830Z,12.49
2023-03-26T15:47:23.447Z,13.14
2023-03-26T15:53:10.306Z,11.73
2023-03-26T15:58:30.969Z,12.12
2023-03-26T16:03:50.083Z,12.67
2023-03-26T16:08:56.272Z,11.50
2023-03-26T16:14:23.899Z,11.98
2023-03-26T16:19:36.422Z,12.34
2023-03-26T16:24:47.787Z,10.99
2023-03-26T16:30:00.154Z,10.95
2023-03-26T16:35:16.742Z,12.19
2023-03-26T16:40:20.991Z,12.99
2023-03-26T16:45:50.607Z,12.61
2023-03-26T16:51:05.176Z,10.63
2023-03-26T16:56:22.527Z,10.30
2023-03-26T17:01:52.387Z,11.70
2023-03-26T17:07:17.588Z,12.49
2023-03-26T17:12:48.659Z,12.94
2023-03-26T17:18:03.821Z,12.03
2023-03-26T17:23:25.690Z,10.53
2023-03-26T17:28:45.489Z,10.75
2023-03-26T17:33:48.759Z,12.28
2023-03-26T17:39:00.984Z,13.09
2023-03-26T17:44:47.354Z,13.28
2023-03-26T17:49:58.549Z,11.56
2023-03-26T17:55:03.059Z,10.11
2023-03-26T18:00:11.113Z,10.53
2023-03-26T18:05:16.890Z,11.84
2023-03-26T18:10:41.606Z,12.65
2023-03-26T18:16:00.218Z,13.22
2023-03-26T18:21:07.404Z,12.81
2023-03-26T18:26:21.656Z,11.08
2023-03-26T18:31:27.049Z,10.70
2023-03-26T18:36:31.243Z,12.03
2023-03-26T18:41:42.846Z,12.71
2023-03-26T18:46:46.682Z,13.08
2023-03-26T18:51:56.677Z,13.31
2023-03-26T18:57:15.026Z,13.47
2023-03-26T19:02:21.117Z,12.79
2023-03-26T19:07:26.657Z,10.91
2023-03-26T19:12:36.744Z,10.38
2023-03-26T19:17:44.717Z,11.20
2023-03-26T19:22:48.719Z,11.47
2023-03-26T19:27:52.745Z,11.28
2023-03-26T19:33:11.881Z,11.14
2023-03-26T19:38:19.224Z,10.68
2023-03-26T19:43:24.120Z,10.78
2023-03-26T19:48:45.437Z,10.27
2023-03-26T19:53:58.494Z,10.33
2023-03-26T19:59:02.485Z,10.10
2023-03-26T20:04:07.475Z,9.82
2023-03-26T20:09:11.938Z,10.23
2023-03-26T20:14:17.402Z,9.43
2023-03-26T20:19:20.966Z,8.51
2023-03-26T20:24:26.202Z,8.89
2023-03-26T20:29:29.651Z,9.48
2023-03-26T20:34:32.835Z,8.44
2023-03-26T20:39:36.043Z,7.31
2023-03-26T20:44:39.151Z,8.11
2023-03-26T20:49:43.377Z,8.58
2023-03-26T20:54:46.394Z,8.82
2023-03-26T20:59:49.529Z,7.22
2023-03-26T21:04:54.043Z,7.27
2023-03-26T21:09:58.217Z,8.40
2023-03-26T21:15:07.194Z,8.07
2023-03-26T21:20:15.180Z,6.24
2023-03-26T21:25:32.297Z,5.12
2023-03-26T21:30:36.122Z,5.20
2023-03-26T21:35:40.531Z,6.91
2023-03-26T21:40:52.915Z,8.03
2023-03-26T21:46:01.835Z,7.88
2023-03-26T21:51:05.765Z,6.16
2023-03-26T21:56:41.662Z,5.04
2023-03-26T22:01:58.623Z,5.10
2023-03-26T22:07:10.370Z,6.70
2023-03-26T22:12:13.485Z,7.61
2023-03-26T22:17:16.473Z,7.38
2023-03-26T22:22:19.499Z,5.57
2023-03-26T22:27:22.501Z,5.04
2023-03-26T22:32:25.531Z,6.39
2023-03-26T22:37:37.370Z,7.30
2023-03-26T22:42:41.055Z,6.99
2023-03-26T22:47:45.180Z,5.12
2023-03-26T22:52:48.285Z,4.93
2023-03-26T22:57:52.632Z,7.06
2023-03-26T23:03:00.786Z,7.28
2023-03-26T23:08:04.300Z,5.17
2023-03-26T23:13:07.684Z,4.80
2023-03-26T23:18:12.030Z,6.90
2023-03-26T23:23:15.027Z,7.02
2023-03-26T23:28:18.436Z,4.94
2023-03-26T23:33:23.474Z,3.66
2023-03-26T23:38:44.301Z,3.81
2023-03-26T23:43:55.486Z,6.07
2023-03-26T23:49:02.431Z,7.32
2023-03-26T23:54:05.632Z,6.19
2023-03-26T23:59:08.564Z,4.32
